Time;durP1;ratioP1;P1;durP2;ratioP2;P2;SDS_P1;SDS_P2;PMS_P1;PMS_P2;Temp;Humidity;BMP_temperature;BMP_pressure;BME280_temperature;BME280_humidity;BME280_pressure;Samples;Min_cycle;Max_cycle;Signal;HPM_P1;HPM_P2
2021/10/06 00:01:54;;;;;;;9.02;4.97;;;10.60;99.90;;;;;;4852918;29;20482;-91
2021/10/06 00:04:20;;;;;;;9.68;5.20;;;10.60;99.90;;;;;;4854293;29;20582;-94
2021/10/06 00:06:47;;;;;;;16.17;5.30;;;10.60;99.90;;;;;;4877792;29;20084;-92
2021/10/06 00:09:13;;;;;;;16.10;6.50;;;10.60;99.90;;;;;;4847536;29;20059;-92
2021/10/06 00:11:40;;;;;;;11.73;5.38;;;10.60;99.90;;;;;;4862396;29;20052;-92
2021/10/06 00:14:09;;;;;;;16.02;5.25;;;10.60;99.90;;;;;;4829263;29;20060;-92
2021/10/06 00:16:35;;;;;;;13.15;4.80;;;10.70;99.90;;;;;;4829272;29;20059;-92
2021/10/06 00:19:02;;;;;;;17.38;5.43;;;10.60;99.90;;;;;;4855862;29;20057;-92
2021/10/06 00:21:28;;;;;;;15.55;5.50;;;10.70;99.90;;;;;;4862534;29;20064;-92
2021/10/06 00:23:53;;;;;;;16.92;4.80;;;10.70;99.90;;;;;;4849189;29;20049;-92
2021/10/06 00:26:19;;;;;;;16.80;5.07;;;10.70;99.90;;;;;;4856943;29;20056;-93
2021/10/06 00:28:45;;;;;;;11.68;4.72;;;10.70;99.90;;;;;;4854960;29;20081;-91
2021/10/06 00:31:10;;;;;;;10.52;4.72;;;10.70;99.90;;;;;;4857329;29;20049;-92
2021/10/06 00:33:36;;;;;;;10.02;4.28;;;10.70;99.90;;;;;;4862959;29;20045;-92
2021/10/06 00:36:02;;;;;;;12.00;4.45;;;10.70;99.90;;;;;;4870138;29;20099;-91
2021/10/06 00:38:28;;;;;;;13.32;4.45;;;10.70;99.90;;;;;;4862561;29;20045;-92
2021/10/06 00:40:54;;;;;;;14.45;4.53;;;10.80;99.90;;;;;;4862385;29;20433;-92
2021/10/06 00:43:21;;;;;;;10.23;4.30;;;10.70;99.90;;;;;;4847430;29;20049;-92
2021/10/06 00:45:46;;;;;;;13.32;4.30;;;10.70;99.90;;;;;;4832246;29;20483;-92
2021/10/06 00:48:12;;;;;;;14.00;4.05;;;10.70;99.90;;;;;;4863063;29;20053;-92
2021/10/06 00:50:38;;;;;;;10.23;3.92;;;10.70;99.90;;;;;;4862898;29;20105;-91
2021/10/06 00:53:05;;;;;;;10.45;3.83;;;10.70;99.90;;;;;;4848377;29;20049;-92
2021/10/06 00:55:31;;;;;;;12.60;4.05;;;10.60;99.90;;;;;;4844789;29;20121;-91
2021/10/06 00:57:56;;;;;;;8.57;3.55;;;10.60;99.90;;;;;;4845169;29;20136;-92
2021/10/06 01:00:22;;;;;;;10.48;3.47;;;10.60;99.90;;;;;;4858648;29;20901;-92
2021/10/06 01:02:48;;;;;;;14.05;3.80;;;10.60;99.90;;;;;;4862566;29;20727;-92
2021/10/06 01:05:14;;;;;;;8.43;3.55;;;10.50;99.90;;;;;;4846925;29;20049;-92
2021/10/06 01:07:40;;;;;;;12.82;3.50;;;10.50;99.90;;;;;;4812356;29;20198;-93
2021/10/06 01:10:08;;;;;;;13.00;4.13;;;10.50;99.90;;;;;;4854010;29;20105;-92
2021/10/06 01:12:34;;;;;;;12.82;3.88;;;10.40;99.90;;;;;;4861394;29;20052;-92
2021/10/06 01:15:04;;;;;;;8.80;3.97;;;10.40;99.90;;;;;;4860534;29;20053;-92
2021/10/06 01:17:30;;;;;;;15.98;4.18;;;10.40;99.90;;;;;;4856757;29;20041;-95
2021/10/06 01:19:56;;;;;;;12.82;3.70;;;10.30;99.90;;;;;;4844949;29;20081;-94
2021/10/06 01:22:22;;;;;;;11.15;3.75;;;10.30;99.90;;;;;;4847072;29;20057;-92
2021/10/06 01:24:48;;;;;;;19.48;3.90;;;10.20;99.90;;;;;;4862719;29;20100;-93
2021/10/06 01:27:14;;;;;;;8.30;3.75;;;10.20;99.90;;;;;;4847806;29;20065;-93
2021/10/06 01:29:40;;;;;;;15.15;4.03;;;10.20;99.90;;;;;;4847784;29;20052;-92
2021/10/06 01:32:16;;;;;;;9.18;3.90;;;10.10;99.90;;;;;;4832676;29;20523;-93
2021/10/06 01:34:43;;;;;;;12.07;3.83;;;10.10;99.90;;;;;;4844011;29;20044;-93
2021/10/06 01:37:09;;;;;;;17.75;4.50;;;10.10;99.90;;;;;;4847751;29;20125;-91
2021/10/06 01:39:35;;;;;;;10.88;3.60;;;10.00;99.90;;;;;;4832257;29;20489;-92
2021/10/06 01:42:02;;;;;;;11.23;3.58;;;9.90;99.90;;;;;;4847794;29;20079;-93
2021/10/06 01:44:28;;;;;;;11.32;3.47;;;10.00;99.90;;;;;;4877368;29;20505;-95
2021/10/06 01:46:54;;;;;;;10.27;3.60;;;9.90;99.90;;;;;;4847862;29;20085;-93
2021/10/06 01:49:19;;;;;;;8.80;3.25;;;9.90;99.90;;;;;;4847811;29;20049;-94
2021/10/06 01:51:45;;;;;;;9.18;3.65;;;9.90;99.90;;;;;;4847623;29;20053;-93
2021/10/06 01:54:11;;;;;;;12.63;3.60;;;9.90;99.90;;;;;;4863036;29;20053;-93
2021/10/06 01:56:38;;;;;;;10.65;3.40;;;9.90;99.90;;;;;;4847884;29;20045;-93
2021/10/06 01:59:04;;;;;;;8.60;3.47;;;9.90;99.90;;;;;;4848091;29;20057;-93
2021/10/06 02:01:30;;;;;;;12.85;3.88;;;9.90;99.90;;;;;;4836638;29;20072;-92
2021/10/06 02:03:56;;;;;;;16.65;3.60;;;9.90;99.90;;;;;;4846287;29;20056;-93
2021/10/06 02:06:22;;;;;;;10.30;3.88;;;9.90;99.90;;;;;;4862195;29;20049;-93
2021/10/06 02:08:48;;;;;;;16.75;3.80;;;9.80;99.90;;;;;;4861627;29;20045;-93
2021/10/06 02:11:14;;;;;;;9.70;3.58;;;9.90;99.90;;;;;;4846632;29;20493;-91
2021/10/06 02:13:40;;;;;;;12.30;3.50;;;9.90;99.90;;;;;;4861666;29;20124;-92
2021/10/06 02:16:06;;;;;;;11.05;4.50;;;9.90;99.90;;;;;;4831714;29;20044;-92
2021/10/06 02:18:32;;;;;;;11.88;3.50;;;9.90;99.90;;;;;;4846547;29;20088;-92
2021/10/06 02:20:58;;;;;;;8.90;3.40;;;9.90;99.90;;;;;;4845381;29;20109;-93
2021/10/06 02:23:24;;;;;;;12.20;3.63;;;9.80;99.90;;;;;;4846437;29;20075;-92
2021/10/06 02:25:50;;;;;;;7.60;3.45;;;9.80;99.90;;;;;;4861103;29;20052;-92
2021/10/06 02:28:15;;;;;;;9.98;3.33;;;9.90;99.90;;;;;;4850164;29;20445;-91
2021/10/06 02:30:42;;;;;;;7.05;3.38;;;9.80;99.90;;;;;;4846879;29;20068;-91
2021/10/06 02:33:08;;;;;;;10.70;3.50;;;9.80;99.90;;;;;;4865012;29;20056;-92
2021/10/06 02:35:33;;;;;;;9.63;4.03;;;9.90;99.90;;;;;;4880198;29;20052;-91
2021/10/06 02:37:59;;;;;;;6.32;3.78;;;9.90;99.90;;;;;;4851776;29;20064;-91
2021/10/06 02:40:25;;;;;;;6.45;3.30;;;9.90;99.90;;;;;;4864677;29;20056;-92
2021/10/06 02:42:53;;;;;;;7.68;3.70;;;10.00;99.90;;;;;;4857741;29;20480;-91
2021/10/06 02:45:19;;;;;;;13.73;4.43;;;10.00;99.90;;;;;;4848825;29;20060;-93
2021/10/06 02:47:46;;;;;;;8.98;4.43;;;10.00;99.90;;;;;;4863935;29;20118;-91
2021/10/06 02:50:19;;;;;;;14.98;3.75;;;10.10;99.90;;;;;;4863672;29;20060;-94
2021/10/06 02:52:45;;;;;;;12.30;3.22;;;10.10;99.90;;;;;;4863729;29;20088;-92
2021/10/06 02:55:11;;;;;;;6.13;3.20;;;10.10;99.90;;;;;;4848757;29;20095;-92
2021/10/06 02:57:37;;;;;;;12.85;4.05;;;10.10;99.90;;;;;;4848513;29;20038;-92
2021/10/06 03:00:08;;;;;;;10.40;4.40;;;10.10;99.90;;;;;;4863555;29;20053;-91
2021/10/06 03:02:39;;;;;;;5.43;3.70;;;10.10;99.90;;;;;;4848280;29;20048;-93
2021/10/06 03:05:06;;;;;;;14.65;4.63;;;10.10;99.90;;;;;;4848049;29;20127;-92
2021/10/06 03:07:32;;;;;;;10.80;3.80;;;10.20;99.90;;;;;;4863699;29;20053;-91
2021/10/06 03:09:57;;;;;;;9.98;4.05;;;10.20;99.90;;;;;;4870140;29;20412;-92
2021/10/06 03:12:23;;;;;;;9.40;4.05;;;10.20;99.90;;;;;;4863118;29;20048;-92
2021/10/06 03:14:49;;;;;;;8.85;3.83;;;10.20;99.90;;;;;;4862621;29;20044;-91
2021/10/06 03:17:15;;;;;;;9.70;4.40;;;10.20;99.90;;;;;;4832632;29;20080;-92
2021/10/06 03:19:40;;;;;;;8.60;5.43;;;10.30;99.90;;;;;;4829378;29;20108;-93
2021/10/06 03:22:06;;;;;;;9.88;4.22;;;10.30;99.90;;;;;;4847923;29;20506;-91
2021/10/06 03:24:32;;;;;;;10.13;4.60;;;10.30;99.90;;;;;;4832822;29;20056;-93
2021/10/06 03:26:57;;;;;;;13.75;4.50;;;10.30;99.90;;;;;;4851785;29;20103;-91
2021/10/06 03:29:23;;;;;;;11.43;4.55;;;10.30;99.90;;;;;;4852391;29;20389;-91
2021/10/06 03:31:49;;;;;;;6.30;4.30;;;10.40;99.90;;;;;;4826571;29;20108;-91
2021/10/06 03:34:15;;;;;;;7.15;4.13;;;10.40;99.90;;;;;;4847893;29;20053;-92
2021/10/06 03:36:41;;;;;;;13.50;5.05;;;10.40;99.90;;;;;;4848539;29;20063;-92
2021/10/06 03:39:06;;;;;;;11.10;4.30;;;10.40;99.90;;;;;;4832890;29;20049;-92
2021/10/06 03:41:32;;;;;;;8.40;4.55;;;10.40;99.90;;;;;;4863214;29;20091;-93
2021/10/06 03:43:58;;;;;;;14.98;5.60;;;10.40;99.90;;;;;;4829524;29;20065;-92
2021/10/06 03:46:23;;;;;;;18.85;5.22;;;10.40;99.90;;;;;;4853540;29;20049;-94
2021/10/06 03:48:51;;;;;;;9.80;4.70;;;10.40;99.90;;;;;;4862844;29;20055;-93
2021/10/06 03:51:17;;;;;;;6.53;4.45;;;10.40;99.90;;;;;;4875741;29;20061;-93
2021/10/06 03:53:43;;;;;;;6.07;4.15;;;10.40;99.90;;;;;;4832489;29;20110;-94
2021/10/06 03:56:09;;;;;;;9.10;5.05;;;10.50;99.90;;;;;;4811853;29;20054;-93
2021/10/06 03:58:35;;;;;;;11.32;4.43;;;10.50;99.90;;;;;;4858573;29;20117;-92
2021/10/06 04:01:01;;;;;;;11.10;4.75;;;10.50;99.90;;;;;;4844562;29;20053;-91
2021/10/06 04:03:27;;;;;;;11.40;4.75;;;10.50;99.90;;;;;;4814952;29;20132;-90
2021/10/06 04:05:53;;;;;;;7.43;4.80;;;10.50;99.90;;;;;;4810307;29;20136;-91
2021/10/06 04:08:19;;;;;;;17.83;5.07;;;10.50;99.90;;;;;;4854204;29;20140;-92
2021/10/06 04:10:45;;;;;;;8.68;4.18;;;10.40;99.90;;;;;;4827966;29;20106;-91
2021/10/06 04:13:11;;;;;;;12.40;5.38;;;10.50;99.90;;;;;;4843656;29;20050;-92
2021/10/06 04:15:37;;;;;;;7.53;4.68;;;10.40;99.90;;;;;;4828910;29;20077;-91
2021/10/06 04:18:05;;;;;;;8.40;4.55;;;10.50;99.90;;;;;;4813027;29;20053;-92
2021/10/06 04:20:34;;;;;;;7.53;4.32;;;10.40;99.90;;;;;;4820914;29;20406;-93
2021/10/06 04:23:00;;;;;;;17.90;5.78;;;10.40;99.90;;;;;;4843843;29;20053;-94
2021/10/06 04:25:26;;;;;;;5.93;3.97;;;10.40;99.90;;;;;;4829511;29;20041;-93
2021/10/06 04:27:52;;;;;;;7.32;4.00;;;10.40;99.90;;;;;;4844205;29;20053;-93
2021/10/06 04:30:18;;;;;;;8.93;4.50;;;10.50;99.90;;;;;;4826227;29;20050;-93
2021/10/06 04:32:44;;;;;;;6.65;4.43;;;10.50;99.90;;;;;;4840085;29;20049;-92
2021/10/06 04:35:10;;;;;;;14.45;4.72;;;10.40;99.90;;;;;;4828314;29;20037;-92
2021/10/06 04:37:36;;;;;;;9.48;4.60;;;10.50;99.90;;;;;;4829256;29;20197;-93
2021/10/06 04:40:04;;;;;;;10.70;5.93;;;10.50;99.90;;;;;;4843452;29;20049;-92
2021/10/06 04:42:30;;;;;;;9.95;4.35;;;10.50;99.90;;;;;;4844442;29;20375;-92
2021/10/06 04:44:55;;;;;;;10.75;4.53;;;10.50;99.90;;;;;;4828436;29;20098;-93
2021/10/06 04:47:21;;;;;;;8.40;4.18;;;10.50;99.90;;;;;;4844841;29;20057;-92
2021/10/06 04:49:47;;;;;;;14.60;4.47;;;10.50;99.90;;;;;;4831522;29;20075;-93
2021/10/06 04:52:13;;;;;;;11.77;4.60;;;10.50;99.90;;;;;;4887836;29;20332;-92
2021/10/06 04:54:39;;;;;;;11.75;4.07;;;10.50;99.90;;;;;;4877139;29;20182;-91
2021/10/06 04:57:04;;;;;;;9.80;4.65;;;10.50;99.90;;;;;;4846142;29;20087;-92
2021/10/06 04:59:30;;;;;;;10.43;4.43;;;10.40;99.90;;;;;;4846569;29;20056;-91
2021/10/06 05:01:56;;;;;;;8.77;3.83;;;10.40;99.90;;;;;;4830462;29;20056;-92
2021/10/06 05:04:22;;;;;;;11.70;3.47;;;10.50;99.90;;;;;;4861624;29;20408;-91
2021/10/06 05:06:48;;;;;;;14.15;3.63;;;10.50;99.90;;;;;;4846201;29;20053;-92
2021/10/06 05:09:15;;;;;;;11.13;3.42;;;10.50;99.90;;;;;;4845672;29;20062;-91
2021/10/06 05:11:41;;;;;;;10.15;3.60;;;10.50;99.90;;;;;;4861766;29;20052;-92
2021/10/06 05:14:07;;;;;;;8.60;3.00;;;10.50;99.90;;;;;;4846034;29;20060;-92
2021/10/06 05:16:33;;;;;;;7.32;2.55;;;10.50;99.90;;;;;;4831334;29;20056;-91
2021/10/06 05:18:58;;;;;;;7.05;3.00;;;10.50;99.90;;;;;;4857146;29;20056;-92
2021/10/06 05:21:24;;;;;;;7.32;2.70;;;10.50;99.90;;;;;;4861251;29;20041;-92
2021/10/06 05:23:50;;;;;;;10.60;2.38;;;10.50;99.90;;;;;;4877445;29;20049;-92
2021/10/06 05:26:16;;;;;;;4.93;2.42;;;10.60;99.90;;;;;;4830528;29;20033;-91
2021/10/06 05:28:42;;;;;;;7.32;2.50;;;10.50;99.90;;;;;;4846388;29;20049;-92
2021/10/06 05:31:07;;;;;;;8.82;2.72;;;10.60;99.90;;;;;;4845832;29;20057;-92
2021/10/06 05:33:33;;;;;;;5.97;2.60;;;10.60;99.90;;;;;;4861156;29;20057;-92
2021/10/06 05:35:59;;;;;;;13.35;2.60;;;10.60;99.90;;;;;;4861057;29;20068;-92
2021/10/06 05:38:25;;;;;;;10.80;2.88;;;10.60;99.90;;;;;;4861598;29;20065;-92
2021/10/06 05:40:50;;;;;;;13.95;2.80;;;10.60;99.90;;;;;;4861576;29;20071;-92
2021/10/06 05:43:17;;;;;;;9.13;2.47;;;10.60;99.90;;;;;;4860743;29;20033;-91
2021/10/06 05:45:43;;;;;;;10.23;2.67;;;10.60;99.90;;;;;;4830988;29;20045;-91
2021/10/06 05:48:08;;;;;;;7.95;2.65;;;10.60;99.90;;;;;;4845447;29;20052;-91
2021/10/06 05:50:34;;;;;;;8.73;3.10;;;10.60;99.90;;;;;;4830431;29;20060;-92
2021/10/06 05:53:03;;;;;;;11.40;2.92;;;10.60;99.90;;;;;;4860919;29;20045;-92
2021/10/06 05:55:29;;;;;;;7.90;2.92;;;10.70;99.90;;;;;;4845834;29;20168;-91
2021/10/06 05:57:55;;;;;;;6.00;2.90;;;10.70;99.90;;;;;;4845976;29;20081;-92
2021/10/06 06:00:21;;;;;;;11.48;3.20;;;10.70;99.90;;;;;;4845866;29;20064;-91
2021/10/06 06:02:47;;;;;;;9.35;3.53;;;10.70;99.90;;;;;;4855984;29;20478;-92
2021/10/06 06:05:15;;;;;;;9.38;3.50;;;10.70;99.90;;;;;;4844158;29;20076;-91
2021/10/06 06:07:41;;;;;;;9.65;3.92;;;10.70;99.90;;;;;;4848670;29;20405;-92
2021/10/06 06:10:07;;;;;;;7.78;3.38;;;10.70;99.90;;;;;;4844926;29;20053;-91
2021/10/06 06:12:33;;;;;;;12.43;3.72;;;10.80;99.90;;;;;;4861520;29;20081;-91
2021/10/06 06:14:59;;;;;;;8.63;3.47;;;10.80;99.90;;;;;;4867196;29;20061;-92
2021/10/06 06:17:25;;;;;;;6.32;3.40;;;10.80;99.90;;;;;;4875304;29;20044;-92
2021/10/06 06:19:51;;;;;;;7.40;3.50;;;10.80;99.90;;;;;;4849236;29;20509;-92
2021/10/06 06:22:17;;;;;;;10.43;3.35;;;10.80;99.90;;;;;;4852271;29;20045;-92
2021/10/06 06:24:43;;;;;;;9.82;3.30;;;10.80;99.90;;;;;;4834763;29;20105;-91
2021/10/06 06:27:08;;;;;;;15.40;3.60;;;10.80;99.90;;;;;;4834252;29;20052;-92
2021/10/06 06:29:36;;;;;;;8.15;3.40;;;10.90;99.90;;;;;;4865729;29;20045;-93
2021/10/06 06:32:02;;;;;;;12.55;3.20;;;10.90;99.90;;;;;;4847959;29;20053;-91
2021/10/06 06:34:27;;;;;;;5.38;2.60;;;11.00;99.90;;;;;;4847394;29;20076;-90
2021/10/06 06:36:53;;;;;;;8.20;2.42;;;11.00;99.90;;;;;;4846639;29;20048;-90
2021/10/06 06:39:19;;;;;;;15.05;2.60;;;11.00;99.90;;;;;;4830671;29;20052;-91
2021/10/06 06:41:45;;;;;;;10.02;2.90;;;11.00;99.90;;;;;;4831523;29;20455;-90
2021/10/06 06:44:11;;;;;;;6.13;2.75;;;11.00;99.90;;;;;;4861149;29;20493;-90
2021/10/06 06:46:37;;;;;;;7.97;2.33;;;11.00;99.90;;;;;;4836473;29;20140;-90
2021/10/06 06:49:03;;;;;;;3.67;2.00;;;11.10;99.90;;;;;;4816697;29;20064;-93
2021/10/06 06:51:29;;;;;;;10.43;2.47;;;11.10;99.90;;;;;;4832041;29;20053;-91
2021/10/06 06:53:55;;;;;;;6.25;2.00;;;11.10;99.90;;;;;;4846395;29;20041;-90
2021/10/06 06:56:22;;;;;;;6.15;2.53;;;11.10;99.90;;;;;;4858837;29;20083;-89
2021/10/06 06:58:49;;;;;;;9.57;2.33;;;11.10;99.90;;;;;;4857248;29;20148;-91
2021/10/06 07:01:15;;;;;;;4.65;2.17;;;11.10;99.90;;;;;;4851835;29;20505;-90
2021/10/06 07:03:40;;;;;;;6.75;2.72;;;11.10;99.90;;;;;;4847401;29;20049;-91
2021/10/06 07:06:06;;;;;;;9.18;2.35;;;11.10;99.90;;;;;;4861630;29;20518;-91
2021/10/06 07:08:32;;;;;;;6.78;2.63;;;11.00;99.90;;;;;;4816779;29;20088;-90
2021/10/06 07:10:58;;;;;;;6.43;2.75;;;11.10;99.90;;;;;;4818481;29;20095;-91
2021/10/06 07:13:23;;;;;;;11.32;2.70;;;11.10;99.90;;;;;;4846826;29;20482;-89
2021/10/06 07:15:49;;;;;;;10.60;2.45;;;11.10;99.90;;;;;;4821593;29;20049;-91
2021/10/06 07:18:16;;;;;;;5.40;2.10;;;11.10;99.90;;;;;;4846413;29;20045;-91
2021/10/06 07:20:42;;;;;;;8.90;2.05;;;11.10;99.90;;;;;;4863951;29;20453;-90
2021/10/06 07:23:07;;;;;;;5.28;2.05;;;11.10;99.90;;;;;;4843082;29;20053;-90
2021/10/06 07:25:33;;;;;;;10.07;2.15;;;11.20;99.90;;;;;;4845745;29;20386;-89
2021/10/06 07:27:59;;;;;;;6.97;1.75;;;11.10;99.90;;;;;;4829326;29;20504;-90
2021/10/06 07:30:25;;;;;;;3.78;1.70;;;11.20;99.90;;;;;;4845906;29;20128;-90
2021/10/06 07:32:50;;;;;;;5.95;1.75;;;11.20;99.90;;;;;;4845807;29;20056;-91
2021/10/06 07:35:16;;;;;;;2.90;1.48;;;11.20;99.90;;;;;;4852130;29;20060;-91
2021/10/06 07:37:42;;;;;;;4.50;1.75;;;11.20;99.90;;;;;;4867336;29;20045;-90
2021/10/06 07:40:08;;;;;;;5.63;1.75;;;11.30;99.90;;;;;;4830635;29;20144;-92
2021/10/06 07:42:34;;;;;;;5.70;1.55;;;11.30;99.90;;;;;;4846013;29;20049;-91
2021/10/06 07:45:00;;;;;;;4.35;1.42;;;11.30;99.90;;;;;;4830837;29;20154;-91
2021/10/06 07:47:25;;;;;;;5.03;1.40;;;11.40;99.90;;;;;;4846423;29;20447;-91
2021/10/06 07:49:51;;;;;;;1.40;1.30;;;11.50;99.90;;;;;;4847429;29;20060;-91
2021/10/06 07:52:17;;;;;;;5.80;1.40;;;11.50;99.90;;;;;;4858254;29;20060;-90
2021/10/06 07:54:43;;;;;;;3.05;1.30;;;11.50;99.90;;;;;;4831488;29;20060;-91
2021/10/06 07:57:09;;;;;;;7.22;1.48;;;11.60;99.90;;;;;;4846545;29;20049;-92
2021/10/06 07:59:34;;;;;;;4.25;1.35;;;11.60;99.90;;;;;;4831701;29;20077;-90
2021/10/06 08:02:00;;;;;;;3.85;1.40;;;11.60;99.90;;;;;;4846979;29;20063;-90
2021/10/06 08:04:27;;;;;;;4.65;1.58;;;11.60;99.90;;;;;;4861581;29;20493;-91
2021/10/06 08:06:53;;;;;;;2.53;1.40;;;11.60;99.90;;;;;;4834106;29;20059;-91
2021/10/06 08:09:19;;;;;;;2.60;1.13;;;11.70;99.90;;;;;;4846197;29;20060;-91
2021/10/06 08:11:45;;;;;;;3.83;1.27;;;11.70;99.90;;;;;;4853002;29;20063;-91
2021/10/06 08:14:11;;;;;;;3.00;1.20;;;11.80;99.90;;;;;;4819116;29;20049;-92
2021/10/06 08:16:37;;;;;;;2.80;1.27;;;11.80;99.90;;;;;;4861797;29;20057;-92
2021/10/06 08:19:04;;;;;;;4.93;1.20;;;11.80;99.90;;;;;;4861362;29;20851;-90
2021/10/06 08:21:30;;;;;;;2.92;1.17;;;11.80;99.90;;;;;;4860950;29;20052;-91
2021/10/06 08:23:56;;;;;;;4.30;1.20;;;11.90;99.90;;;;;;4861557;29;20045;-91
2021/10/06 08:26:22;;;;;;;2.78;0.90;;;12.00;99.90;;;;;;4830281;29;20136;-90
2021/10/06 08:28:48;;;;;;;9.85;1.30;;;12.00;99.90;;;;;;4845115;29;20442;-91
2021/10/06 08:31:16;;;;;;;5.65;1.50;;;11.90;99.90;;;;;;4876160;29;20550;-92
2021/10/06 08:33:42;;;;;;;4.28;1.40;;;12.00;99.90;;;;;;4861210;29;20041;-90
2021/10/06 08:36:07;;;;;;;5.22;1.55;;;12.00;99.90;;;;;;4847761;29;20520;-90
2021/10/06 08:38:34;;;;;;;3.70;1.40;;;12.00;99.90;;;;;;4845208;29;20041;-91
2021/10/06 08:41:00;;;;;;;4.72;1.35;;;12.00;99.90;;;;;;4815639;29;20049;-90
2021/10/06 08:43:27;;;;;;;2.53;1.20;;;12.00;99.90;;;;;;4830489;29;20053;-90
2021/10/06 08:45:53;;;;;;;3.42;1.60;;;12.10;99.90;;;;;;4845782;29;20128;-91
2021/10/06 08:48:18;;;;;;;2.13;1.23;;;12.20;99.90;;;;;;4830320;29;20545;-91
2021/10/06 08:50:44;;;;;;;3.70;1.13;;;12.30;99.90;;;;;;4850493;29;20060;-91
2021/10/06 08:53:11;;;;;;;2.78;1.30;;;12.30;99.90;;;;;;4853482;29;20140;-90
2021/10/06 08:55:37;;;;;;;3.85;1.73;;;12.30;99.90;;;;;;4845281;29;20135;-90
2021/10/06 08:58:07;;;;;;;3.13;1.75;;;12.30;99.90;;;;;;4861363;29;20555;-91
2021/10/06 09:00:56;;;;;;;6.35;1.60;;;12.30;99.90;;;;;;4866090;29;20151;-90
2021/10/06 09:03:30;;;;;;;2.67;1.70;;;12.40;99.90;;;;;;4854675;29;20057;-91
2021/10/06 09:06:04;;;;;;;3.85;1.55;;;12.40;99.90;;;;;;4865653;29;20493;-91
2021/10/06 09:08:31;;;;;;;4.13;1.70;;;12.40;99.90;;;;;;4856339;29;20136;-91
2021/10/06 09:10:57;;;;;;;6.28;1.75;;;12.30;99.90;;;;;;4845929;29;20465;-91
2021/10/06 09:13:34;;;;;;;5.35;2.00;;;12.20;99.90;;;;;;4845062;29;20084;-91
2021/10/06 09:16:00;;;;;;;3.05;1.60;;;12.30;99.90;;;;;;4861005;29;20095;-91
2021/10/06 09:18:28;;;;;;;8.43;2.10;;;12.20;99.90;;;;;;4861530;29;20077;-90
2021/10/06 09:21:02;;;;;;;3.33;1.73;;;12.20;99.90;;;;;;4864921;29;20048;-91
2021/10/06 09:23:31;;;;;;;7.68;2.42;;;12.20;99.90;;;;;;4860830;29;20056;-91
2021/10/06 09:26:05;;;;;;;7.18;2.70;;;12.20;99.90;;;;;;4845446;29;20071;-91
2021/10/06 09:28:36;;;;;;;6.50;2.83;;;12.20;99.90;;;;;;4856614;29;20544;-91
2021/10/06 09:31:08;;;;;;;6.60;2.28;;;12.20;99.90;;;;;;4844736;29;20137;-91
2021/10/06 09:33:53;;;;;;;5.80;2.88;;;12.10;99.90;;;;;;4844780;29;20052;-91
2021/10/06 09:36:24;;;;;;;6.72;2.50;;;12.10;99.90;;;;;;4860661;29;20132;-93
2021/10/06 09:39:04;;;;;;;8.13;3.00;;;12.10;99.90;;;;;;4845750;29;20053;-91
2021/10/06 09:41:34;;;;;;;5.40;2.40;;;12.00;99.90;;;;;;4849014;29;20374;-91
2021/10/06 09:44:24;;;;;;;10.80;2.90;;;12.00;99.90;;;;;;4874335;29;20297;-92
2021/10/06 09:46:51;;;;;;;5.80;2.72;;;12.10;99.90;;;;;;4849686;29;20053;-92
2021/10/06 09:49:18;;;;;;;6.05;3.05;;;12.00;99.90;;;;;;4864346;29;20505;-95
2021/10/06 09:51:45;;;;;;;6.70;3.20;;;12.00;99.90;;;;;;4849205;29;20192;-91
2021/10/06 09:54:11;;;;;;;6.43;3.00;;;12.10;99.90;;;;;;4849449;29;20052;-91
2021/10/06 09:56:42;;;;;;;9.77;2.85;;;12.00;99.90;;;;;;4848785;29;20044;-91
2021/10/06 09:59:08;;;;;;;13.13;3.10;;;12.00;99.90;;;;;;4864281;29;20045;-91
2021/10/06 10:01:37;;;;;;;8.13;3.10;;;12.00;99.90;;;;;;4830349;29;20056;-90
2021/10/06 10:04:06;;;;;;;9.38;2.63;;;11.90;99.90;;;;;;4849033;29;20108;-90
2021/10/06 10:06:32;;;;;;;7.03;3.28;;;11.90;99.90;;;;;;4847829;29;20045;-90
2021/10/06 10:09:01;;;;;;;6.45;2.70;;;11.90;99.90;;;;;;4864075;29;20572;-90
2021/10/06 10:11:27;;;;;;;3.03;2.08;;;11.90;99.90;;;;;;4866049;29;20096;-90
2021/10/06 10:13:54;;;;;;;5.63;2.17;;;11.90;99.90;;;;;;4863770;29;20116;-89
2021/10/06 10:16:21;;;;;;;4.80;1.92;;;11.90;99.90;;;;;;4863922;29;20057;-92
2021/10/06 10:18:47;;;;;;;5.50;2.20;;;11.90;99.90;;;;;;4863230;29;20045;-90
2021/10/06 10:21:18;;;;;;;9.60;2.88;;;12.00;99.90;;;;;;4825681;29;20524;-90
2021/10/06 10:23:43;;;;;;;;;;;12.10;99.90;;;;;;4830138;29;20048;-90
2021/10/06 10:26:24;;;;;;;8.15;2.10;;;12.10;99.90;;;;;;4870893;29;19983;-90
2021/10/06 10:28:50;;;;;;;4.25;2.17;;;12.10;99.90;;;;;;4870794;29;20128;-90
2021/10/06 10:31:18;;;;;;;3.03;1.88;;;12.10;99.90;;;;;;4871092;29;20545;-90
2021/10/06 10:33:53;;;;;;;3.63;1.85;;;12.20;99.90;;;;;;4847596;29;20045;-89
2021/10/06 10:36:40;;;;;;;5.90;1.88;;;12.30;99.90;;;;;;4842360;29;20052;-91
2021/10/06 10:39:35;;;;;;;2.95;1.60;;;12.40;99.90;;;;;;4863589;29;20131;-91
2021/10/06 10:42:00;;;;;;;2.40;1.60;;;12.50;99.90;;;;;;4861711;29;20067;-90
2021/10/06 10:44:32;;;;;;;2.45;1.30;;;12.60;99.90;;;;;;4858888;29;20278;-91
2021/10/06 10:47:00;;;;;;;8.95;1.70;;;12.60;99.90;;;;;;4877721;29;20084;-88
2021/10/06 10:49:26;;;;;;;4.32;1.77;;;12.60;99.90;;;;;;4859686;29;20061;-90
2021/10/06 10:51:58;;;;;;;3.22;1.77;;;12.60;99.90;;;;;;4858091;29;20437;-88
2021/10/06 10:54:32;;;;;;;2.92;1.73;;;12.60;99.90;;;;;;4861471;29;20053;-90
2021/10/06 10:57:16;;;;;;;3.30;1.90;;;12.60;99.90;;;;;;4862068;29;20049;-88
2021/10/06 10:59:44;;;;;;;2.28;1.73;;;12.50;99.90;;;;;;4845521;29;20053;-90
2021/10/06 11:02:19;;;;;;;2.10;1.45;;;12.60;99.90;;;;;;4845668;29;20460;-90
2021/10/06 11:04:53;;;;;;;3.15;1.80;;;12.60;99.90;;;;;;4875472;29;20708;-89
2021/10/06 11:07:21;;;;;;;3.22;1.77;;;12.60;99.90;;;;;;4857694;29;20053;-92
2021/10/06 11:09:53;;;;;;;3.90;1.63;;;12.60;99.90;;;;;;4860138;29;20072;-88
2021/10/06 11:12:18;;;;;;;3.10;1.63;;;12.60;99.90;;;;;;4860498;29;20095;-88
2021/10/06 11:14:46;;;;;;;2.50;1.60;;;12.60;99.90;;;;;;4859668;29;20323;-89
2021/10/06 11:17:21;;;;;;;4.30;2.20;;;12.60;99.90;;;;;;4860377;29;20060;-91
2021/10/06 11:19:49;;;;;;;3.55;2.30;;;12.60;99.90;;;;;;4832780;29;20044;-90
2021/10/06 11:22:24;;;;;;;5.68;2.83;;;12.50;99.90;;;;;;4860248;29;20127;-89
2021/10/06 11:24:58;;;;;;;4.13;2.72;;;12.50;99.90;;;;;;4865332;29;20817;-92
2021/10/06 11:27:26;;;;;;;7.85;3.03;;;12.50;99.90;;;;;;4864244;29;20053;-91
2021/10/06 11:29:54;;;;;;;5.07;3.30;;;12.40;99.90;;;;;;4859124;29;20079;-91
2021/10/06 11:32:20;;;;;;;4.20;3.15;;;12.40;99.90;;;;;;4875943;29;20136;-90
2021/10/06 11:34:51;;;;;;;4.50;3.40;;;12.40;99.90;;;;;;4859668;29;20136;-90
2021/10/06 11:37:18;;;;;;;4.40;3.70;;;12.40;99.90;;;;;;4830029;29;20112;-90
2021/10/06 11:39:45;;;;;;;4.55;3.42;;;12.50;99.90;;;;;;4875301;29;20453;-90
2021/10/06 11:42:12;;;;;;;5.32;3.60;;;12.60;99.90;;;;;;4844586;29;20040;-90
2021/10/06 11:44:40;;;;;;;6.18;3.33;;;12.60;99.90;;;;;;4859372;29;20053;-89
2021/10/06 11:47:11;;;;;;;7.30;3.50;;;12.70;99.90;;;;;;4860303;29;20068;-90
2021/10/06 11:49:39;;;;;;;3.80;3.03;;;12.80;99.90;;;;;;4859407;29;20076;-90
2021/10/06 11:52:06;;;;;;;9.23;3.50;;;12.80;99.90;;;;;;4844733;29;20121;-89
2021/10/06 11:54:33;;;;;;;7.97;3.60;;;12.90;99.90;;;;;;4850296;29;20059;-90
2021/10/06 11:57:00;;;;;;;5.00;4.18;;;12.90;99.90;;;;;;4845784;29;20075;-90
2021/10/06 11:59:33;;;;;;;6.80;3.63;;;13.00;99.90;;;;;;4845039;29;20048;-90
2021/10/06 12:02:03;;;;;;;6.72;3.30;;;13.10;99.90;;;;;;4859716;29;20061;-89
2021/10/06 12:04:32;;;;;;;6.40;2.90;;;13.10;99.90;;;;;;4870279;29;20052;-90
2021/10/06 12:07:00;;;;;;;5.93;2.63;;;13.10;99.90;;;;;;4848980;29;20055;-89
2021/10/06 12:09:41;;;;;;;5.65;2.83;;;13.20;99.90;;;;;;4863757;29;20133;-90
2021/10/06 12:12:12;;;;;;;9.20;2.38;;;13.40;99.90;;;;;;4859864;29;20144;-89
2021/10/06 12:14:52;;;;;;;2.10;1.90;;;13.40;99.90;;;;;;4846492;29;20059;-90
2021/10/06 12:17:18;;;;;;;;;;;13.50;99.90;;;;;;4849359;29;20063;-90
2021/10/06 12:20:08;;;;;;;8.00;2.25;;;13.70;99.90;;;;;;4859122;29;19928;-89
2021/10/06 12:22:48;;;;;;;4.03;2.15;;;13.80;99.90;;;;;;4837107;29;20061;-90
2021/10/06 12:25:19;;;;;;;3.35;1.60;;;14.00;99.90;;;;;;4865236;29;20099;-89
2021/10/06 12:27:49;;;;;;;6.53;1.98;;;14.00;99.90;;;;;;4843198;29;20485;-89
2021/10/06 12:30:27;;;;;;;5.35;1.85;;;14.00;99.90;;;;;;4859570;29;20087;-89
2021/10/06 12:33:05;;;;;;;3.97;2.20;;;14.00;99.90;;;;;;4857421;29;20086;-89
2021/10/06 12:35:43;;;;;;;7.68;1.50;;;14.10;99.90;;;;;;4859239;29;20053;-89
2021/10/06 12:38:10;;;;;;;2.80;1.38;;;14.20;99.90;;;;;;4859987;29;20109;-90
2021/10/06 12:40:39;;;;;;;6.15;1.95;;;14.20;99.90;;;;;;4868301;29;20139;-90
2021/10/06 12:43:07;;;;;;;8.55;1.85;;;14.30;99.90;;;;;;4843616;29;20100;-90
2021/10/06 12:45:33;;;;;;;2.15;1.92;;;14.30;99.90;;;;;;4859210;29;20501;-90
2021/10/06 12:48:00;;;;;;;6.35;2.38;;;14.40;99.90;;;;;;4858662;29;20071;-89